sensor_id;sensor_type;location;lat;lon;timestamp;temperature;humidity
67165;SHT31;54093;50.014;19.984;2023-04-03T00:00:13;3.63;80.35
67165;SHT31;54093;50.014;19.984;2023-04-03T00:09:54;3.60;80.31
67165;SHT31;54093;50.014;19.984;2023-04-03T00:19:15;3.52;80.30
67165;SHT31;54093;50.014;19.984;2023-04-03T00:28:36;3.38;80.32
67165;SHT31;54093;50.014;19.984;2023-04-03T00:37:57;3.43;80.73
67165;SHT31;54093;50.014;19.984;2023-04-03T00:47:18;3.40;80.55
67165;SHT31;54093;50.014;19.984;2023-04-03T00:56:39;3.31;80.45
67165;SHT31;54093;50.014;19.984;2023-04-03T01:06:01;3.23;80.78
67165;SHT31;54093;50.014;19.984;2023-04-03T01:15:24;3.12;80.33
67165;SHT31;54093;50.014;19.984;2023-04-03T01:24:45;3.01;80.83
67165;SHT31;54093;50.014;19.984;2023-04-03T01:34:07;3.02;80.10
67165;SHT31;54093;50.014;19.984;2023-04-03T01:43:28;3.01;80.69
67165;SHT31;54093;50.014;19.984;2023-04-03T01:52:49;3.01;80.16
67165;SHT31;54093;50.014;19.984;2023-04-03T02:02:10;2.97;80.81
67165;SHT31;54093;50.014;19.984;2023-04-03T02:11:34;2.95;81.06
67165;SHT31;54093;50.014;19.984;2023-04-03T02:20:54;2.85;80.67
67165;SHT31;54093;50.014;19.984;2023-04-03T02:30:15;2.90;80.82
67165;SHT31;54093;50.014;19.984;2023-04-03T02:39:36;2.76;80.81
67165;SHT31;54093;50.014;19.984;2023-04-03T02:48:57;2.73;81.36
67165;SHT31;54093;50.014;19.984;2023-04-03T02:58:18;2.74;81.54
67165;SHT31;54093;50.014;19.984;2023-04-03T03:07:39;2.61;81.36
67165;SHT31;54093;50.014;19.984;2023-04-03T03:17:00;2.61;81.39
67165;SHT31;54093;50.014;19.984;2023-04-03T03:26:20;2.54;81.07
67165;SHT31;54093;50.014;19.984;2023-04-03T03:35:41;2.56;81.25
67165;SHT31;54093;50.014;19.984;2023-04-03T03:45:02;2.56;81.26
67165;SHT31;54093;50.014;19.984;2023-04-03T03:54:23;2.42;81.28
67165;SHT31;54093;50.014;19.984;2023-04-03T04:03:44;2.46;81.64
67165;SHT31;54093;50.014;19.984;2023-04-03T04:13:05;2.33;80.89
67165;SHT31;54093;50.014;19.984;2023-04-03T04:22:26;2.35;81.24
67165;SHT31;54093;50.014;19.984;2023-04-03T04:31:47;2.37;81.20
67165;SHT31;54093;50.014;19.984;2023-04-03T04:41:08;2.30;81.63
67165;SHT31;54093;50.014;19.984;2023-04-03T04:50:29;2.19;80.39
67165;SHT31;54093;50.014;19.984;2023-04-03T04:59:50;2.21;81.82
67165;SHT31;54093;50.014;19.984;2023-04-03T05:09:11;2.06;80.49
67165;SHT31;54093;50.014;19.984;2023-04-03T05:18:31;2.01;80.72
67165;SHT31;54093;50.014;19.984;2023-04-03T05:27:52;1.99;81.43
67165;SHT31;54093;50.014;19.984;2023-04-03T05:37:13;2.06;81.73
67165;SHT31;54093;50.014;19.984;2023-04-03T05:46:38;2.08;81.42
67165;SHT31;54093;50.014;19.984;2023-04-03T05:56:01;1.93;80.23
67165;SHT31;54093;50.014;19.984;2023-04-03T06:05:22;1.81;80.35
67165;SHT31;54093;50.014;19.984;2023-04-03T06:14:44;1.77;80.80
67165;SHT31;54093;50.014;19.984;2023-04-03T06:24:07;1.67;80.55
67165;SHT31;54093;50.014;19.984;2023-04-03T06:33:28;1.79;80.45
67165;SHT31;54093;50.014;19.984;2023-04-03T06:42:49;1.75;79.94
67165;SHT31;54093;50.014;19.984;2023-04-03T06:52:10;1.87;80.35
67165;SHT31;54093;50.014;19.984;2023-04-03T07:01:33;1.84;78.01
67165;SHT31;54093;50.014;19.984;2023-04-03T07:10:54;1.93;78.50
67165;SHT31;54093;50.014;19.984;2023-04-03T07:20:16;1.95;77.70
67165;SHT31;54093;50.014;19.984;2023-04-03T07:29:36;2.01;76.96
67165;SHT31;54093;50.014;19.984;2023-04-03T07:38:57;2.09;77.19
67165;SHT31;54093;50.014;19.984;2023-04-03T07:48:20;2.43;77.81
67165;SHT31;54093;50.014;19.984;2023-04-03T07:57:41;2.73;73.06
67165;SHT31;54093;50.014;19.984;2023-04-03T08:07:03;2.80;72.92
67165;SHT31;54093;50.014;19.984;2023-04-03T08:16:24;3.01;74.17
67165;SHT31;54093;50.014;19.984;2023-04-03T08:25:48;3.02;72.41
67165;SHT31;54093;50.014;19.984;2023-04-03T08:35:10;2.88;70.75
67165;SHT31;54093;50.014;19.984;2023-04-03T08:44:46;2.90;70.64
67165;SHT31;54093;50.014;19.984;2023-04-03T08:54:19;2.88;70.64
67165;SHT31;54093;50.014;19.984;2023-04-03T09:03:42;2.83;71.53
67165;SHT31;54093;50.014;19.984;2023-04-03T09:22:33;2.65;70.53
67165;SHT31;54093;50.014;19.984;2023-04-03T09:32:02;2.50;70.99
67165;SHT31;54093;50.014;19.984;2023-04-03T09:41:30;2.39;73.91
67165;SHT31;54093;50.014;19.984;2023-04-03T10:00:24;2.25;75.84
67165;SHT31;54093;50.014;19.984;2023-04-03T10:09:57;2.32;76.14
67165;SHT31;54093;50.014;19.984;2023-04-03T10:19:35;2.40;73.48
67165;SHT31;54093;50.014;19.984;2023-04-03T10:29:13;2.49;72.41
67165;SHT31;54093;50.014;19.984;2023-04-03T10:48:40;2.67;70.05
67165;SHT31;54093;50.014;19.984;2023-04-03T10:58:06;2.67;69.70
67165;SHT31;54093;50.014;19.984;2023-04-03T11:07:38;2.63;70.21
67165;SHT31;54093;50.014;19.984;2023-04-03T11:26:40;2.77;71.02
67165;SHT31;54093;50.014;19.984;2023-04-03T11:36:08;3.40;67.99
67165;SHT31;54093;50.014;19.984;2023-04-03T11:45:35;3.70;66.82
67165;SHT31;54093;50.014;19.984;2023-04-03T11:54:57;3.62;67.01
67165;SHT31;54093;50.014;19.984;2023-04-03T12:04:20;4.02;65.98
67165;SHT31;54093;50.014;19.984;2023-04-03T12:51:54;5.04;63.55
67165;SHT31;54093;50.014;19.984;2023-04-03T13:01:17;5.79;58.50
67165;SHT31;54093;50.014;19.984;2023-04-03T13:10:58;5.59;59.82
67165;SHT31;54093;50.014;19.984;2023-04-03T13:20:29;5.51;58.62
67165;SHT31;54093;50.014;19.984;2023-04-03T13:29:52;5.08;58.32
67165;SHT31;54093;50.014;19.984;2023-04-03T13:48:47;5.99;54.94
67165;SHT31;54093;50.014;19.984;2023-04-03T14:07:29;5.85;55.60
67165;SHT31;54093;50.014;19.984;2023-04-03T14:16:55;5.69;56.45
67165;SHT31;54093;50.014;19.984;2023-04-03T14:26:22;5.69;58.78
67165;SHT31;54093;50.014;19.984;2023-04-03T14:35:44;5.82;56.73
67165;SHT31;54093;50.014;19.984;2023-04-03T14:45:09;5.62;56.16
67165;SHT31;54093;50.014;19.984;2023-04-03T14:54:31;5.31;57.96
67165;SHT31;54093;50.014;19.984;2023-04-03T15:03:52;5.37;55.59
67165;SHT31;54093;50.014;19.984;2023-04-03T15:13:13;5.18;53.48
67165;SHT31;54093;50.014;19.984;2023-04-03T15:22:34;4.98;55.41
67165;SHT31;54093;50.014;19.984;2023-04-03T15:31:55;4.90;54.77
67165;SHT31;54093;50.014;19.984;2023-04-03T15:41:16;4.65;53.57
67165;SHT31;54093;50.014;19.984;2023-04-03T15:50:37;4.62;55.57
67165;SHT31;54093;50.014;19.984;2023-04-03T15:59:58;4.49;56.05
67165;SHT31;54093;50.014;19.984;2023-04-03T16:09:20;4.34;55.05
67165;SHT31;54093;50.014;19.984;2023-04-03T16:18:41;4.28;54.18
67165;SHT31;54093;50.014;19.984;2023-04-03T16:28:02;4.07;53.57
67165;SHT31;54093;50.014;19.984;2023-04-03T16:37:23;3.91;56.20
67165;SHT31;54093;50.014;19.984;2023-04-03T16:46:45;3.74;55.83
67165;SHT31;54093;50.014;19.984;2023-04-03T16:56:06;3.64;56.89
67165;SHT31;54093;50.014;19.984;2023-04-03T17:05:27;3.49;57.21
67165;SHT31;54093;50.014;19.984;2023-04-03T17:14:48;3.39;56.21
67165;SHT31;54093;50.014;19.984;2023-04-03T17:24:10;3.32;57.41
67165;SHT31;54093;50.014;19.984;2023-04-03T17:33:33;3.21;58.69
67165;SHT31;54093;50.014;19.984;2023-04-03T17:42:56;3.12;58.74
67165;SHT31;54093;50.014;19.984;2023-04-03T17:52:17;3.05;59.61
67165;SHT31;54093;50.014;19.984;2023-04-03T18:01:38;3.01;61.55
67165;SHT31;54093;50.014;19.984;2023-04-03T18:11:00;2.91;63.43
67165;SHT31;54093;50.014;19.984;2023-04-03T18:20:22;2.83;62.97
67165;SHT31;54093;50.014;19.984;2023-04-03T18:29:51;2.83;64.01
67165;SHT31;54093;50.014;19.984;2023-04-03T18:39:21;2.79;64.14
67165;SHT31;54093;50.014;19.984;2023-04-03T18:48:42;2.74;65.51
67165;SHT31;54093;50.014;19.984;2023-04-03T18:58:05;2.67;64.97
67165;SHT31;54093;50.014;19.984;2023-04-03T19:07:30;2.60;66.07
67165;SHT31;54093;50.014;19.984;2023-04-03T19:16:51;2.61;66.76
67165;SHT31;54093;50.014;19.984;2023-04-03T19:26:12;2.56;65.96
67165;SHT31;54093;50.014;19.984;2023-04-03T19:35:34;2.52;66.24
67165;SHT31;54093;50.014;19.984;2023-04-03T19:44:55;2.50;66.56
67165;SHT31;54093;50.014;19.984;2023-04-03T19:54:17;2.53;67.60
67165;SHT31;54093;50.014;19.984;2023-04-03T20:03:38;2.49;66.06
67165;SHT31;54093;50.014;19.984;2023-04-03T20:13:00;2.47;65.87
67165;SHT31;54093;50.014;19.984;2023-04-03T20:22:21;2.44;66.60
67165;SHT31;54093;50.014;19.984;2023-04-03T20:31:42;2.44;66.61
67165;SHT31;54093;50.014;19.984;2023-04-03T20:41:05;2.40;67.15
67165;SHT31;54093;50.014;19.984;2023-04-03T20:50:26;2.40;66.42
67165;SHT31;54093;50.014;19.984;2023-04-03T20:59:51;2.43;66.54
67165;SHT31;54093;50.014;19.984;2023-04-03T21:19:12;2.43;68.05
67165;SHT31;54093;50.014;19.984;2023-04-03T21:28:33;2.39;66.32
67165;SHT31;54093;50.014;19.984;2023-04-03T21:37:54;2.39;67.05
67165;SHT31;54093;50.014;19.984;2023-04-03T21:47:15;2.42;67.97
67165;SHT31;54093;50.014;19.984;2023-04-03T21:56:36;2.39;67.82
67165;SHT31;54093;50.014;19.984;2023-04-03T22:05:57;2.40;67.50
67165;SHT31;54093;50.014;19.984;2023-04-03T22:15:18;2.35;67.07
67165;SHT31;54093;50.014;19.984;2023-04-03T22:24:39;2.33;67.70
67165;SHT31;54093;50.014;19.984;2023-04-03T22:34:00;2.28;66.69
67165;SHT31;54093;50.014;19.984;2023-04-03T22:43:24;2.26;67.27
67165;SHT31;54093;50.014;19.984;2023-04-03T22:52:46;2.21;66.97
67165;SHT31;54093;50.014;19.984;2023-04-03T23:02:07;2.16;66.85
67165;SHT31;54093;50.014;19.984;2023-04-03T23:11:28;2.11;66.77
67165;SHT31;54093;50.014;19.984;2023-04-03T23:20:49;2.09;66.95
67165;SHT31;54093;50.014;19.984;2023-04-03T23:30:11;1.98;67.88
67165;SHT31;54093;50.014;19.984;2023-04-03T23:39:32;1.97;67.24
67165;SHT31;54093;50.014;19.984;2023-04-03T23:48:53;1.84;67.77
67165;SHT31;54093;50.014;19.984;2023-04-03T23:58:14;1.73;67.96
